Mason, Ohio
Current Conditions -  °F | °C
As of 2:53 AM on Monday 24 Nov 2014 (Local Time) from KHAO Reporting Station
Broken Clouds Broken Clouds  
Wind Chill: 59°   Ceiling: 2300
Heat Index: 59°   Visibility: 10mi
Dew Point: 55°   Wind: 13mph
Humidity: 87%   Direction: 210°SSW
Pressure: 29.32"   Gusts: 29mph
Location:  39.36°N, 84.3°W
Report Text: KHAO 240753Z AUTO 21011G25KT 10SM BKN023 BKN045 15/13 A2932 RMK AO2 SLP926 T01500128
Loading
Personal Weather Stations






























Interactive Weather Map New forecast layout! Learn more

10-Day Weather Forecast

Advertisements
Track Severe Weather on mobile